Time;durP1;ratioP1;P1;durP2;ratioP2;P2;SDS_P1;SDS_P2;PMS_P1;PMS_P2;Temp;Humidity;BMP_temperature;BMP_pressure;BME280_temperature;BME280_humidity;BME280_pressure;Samples;Min_cycle;Max_cycle;Signal;HPM_P1;HPM_P2
2024/02/06 00:01:24;;;;;;;9.45;2.03;;;9.50;99.90;;;;;;5068886;23;20157;-91
2024/02/06 00:03:25;;;;;;;4.47;1.55;;;9.40;99.90;;;;;;5068773;23;20509;-92
2024/02/06 00:05:26;;;;;;;7.15;1.67;;;9.50;99.90;;;;;;5069123;23;20197;-92
2024/02/06 00:07:27;;;;;;;1.45;0.90;;;9.40;99.90;;;;;;5068723;23;20177;-91
2024/02/06 00:09:28;;;;;;;4.05;1.67;;;9.40;99.90;;;;;;5069314;23;20157;-91
2024/02/06 00:11:29;;;;;;;2.33;1.08;;;9.50;99.90;;;;;;5068502;23;20154;-91
2024/02/06 00:13:29;;;;;;;3.28;1.27;;;9.40;99.90;;;;;;5068306;23;20162;-92
2024/02/06 00:15:30;;;;;;;2.17;1.13;;;9.40;99.90;;;;;;5068926;23;20597;-91
2024/02/06 00:17:32;;;;;;;4.05;0.90;;;9.40;99.90;;;;;;5068768;23;20177;-93
2024/02/06 00:19:33;;;;;;;3.03;1.17;;;9.30;99.90;;;;;;5044605;23;20163;-91
2024/02/06 00:21:34;;;;;;;4.03;1.60;;;9.40;99.90;;;;;;5068563;23;20185;-90
2024/02/06 00:23:35;;;;;;;4.40;1.40;;;9.40;99.90;;;;;;5068773;23;20216;-91
2024/02/06 00:25:35;;;;;;;3.08;1.38;;;9.40;99.90;;;;;;5068512;23;20193;-91
2024/02/06 00:27:36;;;;;;;2.13;1.27;;;9.40;99.90;;;;;;5068531;23;20177;-91
2024/02/06 00:29:37;;;;;;;2.45;1.35;;;9.30;99.90;;;;;;5068603;23;20221;-91
2024/02/06 00:31:38;;;;;;;1.17;0.70;;;9.30;99.90;;;;;;5068541;23;20201;-92
2024/02/06 00:33:39;;;;;;;3.47;2.00;;;9.30;99.90;;;;;;5068577;23;20224;-91
2024/02/06 00:35:40;;;;;;;2.53;1.13;;;9.30;99.90;;;;;;5068533;23;20264;-93
2024/02/06 00:37:44;;;;;;;3.40;1.85;;;9.30;99.90;;;;;;5068275;23;20602;-91
2024/02/06 00:39:45;;;;;;;1.77;1.08;;;9.30;99.90;;;;;;5093354;23;20153;-92
2024/02/06 00:41:46;;;;;;;2.10;1.30;;;9.30;99.90;;;;;;5068440;23;20169;-93
2024/02/06 00:43:48;;;;;;;6.47;1.27;;;9.20;99.90;;;;;;5092714;23;20157;-91
2024/02/06 00:45:51;;;;;;;2.80;1.27;;;9.30;99.90;;;;;;5068605;23;20201;-90
2024/02/06 00:47:52;;;;;;;2.45;1.13;;;9.30;99.90;;;;;;5068188;23;20174;-91
2024/02/06 00:49:53;;;;;;;8.70;2.17;;;9.30;99.90;;;;;;5068692;23;20605;-91
2024/02/06 00:51:54;;;;;;;5.80;1.50;;;9.30;99.90;;;;;;5068482;23;20237;-91
2024/02/06 00:53:55;;;;;;;7.72;1.38;;;9.30;99.90;;;;;;5068764;23;20225;-92
2024/02/06 00:55:56;;;;;;;1.90;1.25;;;9.30;99.90;;;;;;5068695;23;20172;-91
2024/02/06 00:57:57;;;;;;;2.30;1.05;;;9.40;99.90;;;;;;5092921;23;20181;-92
2024/02/06 00:59:58;;;;;;;3.95;1.13;;;9.40;99.90;;;;;;5069011;23;20154;-92
2024/02/06 01:02:00;;;;;;;3.20;1.17;;;9.40;99.90;;;;;;5068804;23;20300;-91
2024/02/06 01:04:01;;;;;;;2.10;1.10;;;9.40;99.90;;;;;;5068497;23;20625;-92
2024/02/06 01:06:02;;;;;;;3.10;1.30;;;9.50;99.90;;;;;;5092852;23;20203;-93
2024/02/06 01:08:04;;;;;;;3.47;1.50;;;9.50;99.90;;;;;;5068869;23;20170;-92
2024/02/06 01:10:05;;;;;;;3.25;1.60;;;9.50;99.90;;;;;;5070511;23;20219;-92
2024/02/06 01:12:07;;;;;;;2.15;1.00;;;9.50;99.90;;;;;;5094528;23;20164;-91
2024/02/06 01:14:08;;;;;;;5.50;1.20;;;9.60;99.90;;;;;;5070243;23;20166;-91
2024/02/06 01:16:09;;;;;;;1.35;0.57;;;9.60;99.90;;;;;;5069900;23;20221;-91
2024/02/06 01:18:10;;;;;;;4.45;1.58;;;9.50;99.90;;;;;;5069376;23;20584;-92
2024/02/06 01:20:11;;;;;;;1.95;1.00;;;9.50;99.90;;;;;;5070048;23;20157;-92
2024/02/06 01:22:12;;;;;;;2.95;0.90;;;9.40;99.90;;;;;;5069963;23;20154;-91
2024/02/06 01:24:13;;;;;;;1.95;1.10;;;9.40;99.90;;;;;;5094535;23;20153;-93
2024/02/06 01:26:14;;;;;;;2.42;1.50;;;9.50;99.90;;;;;;5070009;23;20197;-91
2024/02/06 01:28:15;;;;;;;4.88;1.63;;;9.50;99.90;;;;;;5070281;23;20528;-93
2024/02/06 01:30:16;;;;;;;4.47;1.92;;;9.50;99.90;;;;;;5069651;23;20185;-92
2024/02/06 01:32:17;;;;;;;2.35;1.33;;;9.50;99.90;;;;;;5070015;23;20154;-92
2024/02/06 01:34:19;;;;;;;4.55;1.65;;;9.60;99.90;;;;;;5069854;23;20290;-91
2024/02/06 01:36:20;;;;;;;5.20;1.00;;;9.60;99.90;;;;;;5070179;23;20153;-91
2024/02/06 01:38:22;;;;;;;1.60;1.02;;;9.60;99.90;;;;;;5094257;23;20639;-91
2024/02/06 01:40:23;;;;;;;4.22;1.50;;;9.60;99.90;;;;;;5069801;23;20220;-95
2024/02/06 01:42:24;;;;;;;8.27;1.55;;;9.70;99.90;;;;;;5069941;23;20157;-91
2024/02/06 01:44:27;;;;;;;5.15;1.40;;;9.70;99.90;;;;;;5093964;23;20149;-92
2024/02/06 01:46:29;;;;;;;0.75;0.63;;;9.70;99.90;;;;;;5069521;23;20601;-92
2024/02/06 01:48:30;;;;;;;1.92;1.10;;;9.60;99.90;;;;;;5069455;23;20154;-91
2024/02/06 01:50:31;;;;;;;3.13;1.63;;;9.60;99.90;;;;;;5069657;23;20165;-92
2024/02/06 01:52:33;;;;;;;3.72;1.48;;;9.60;99.90;;;;;;5094096;23;20149;-91
2024/02/06 01:54:34;;;;;;;2.38;1.13;;;9.60;99.90;;;;;;5070056;23;20154;-92
2024/02/06 01:56:36;;;;;;;1.45;1.02;;;9.70;99.90;;;;;;5094399;23;20231;-92
2024/02/06 01:58:38;;;;;;;1.77;0.95;;;9.70;99.90;;;;;;5045992;23;20213;-91
2024/02/06 02:00:40;;;;;;;12.25;2.75;;;9.70;99.90;;;;;;5094566;23;20157;-91
2024/02/06 02:02:41;;;;;;;1.42;0.95;;;9.60;99.90;;;;;;5069696;23;20153;-92
2024/02/06 02:04:42;;;;;;;4.57;0.88;;;9.60;99.90;;;;;;5069663;23;20185;-94
2024/02/06 02:06:45;;;;;;;3.05;1.55;;;9.60;99.90;;;;;;5069486;23;20161;-92
2024/02/06 02:08:47;;;;;;;3.97;1.90;;;9.70;99.90;;;;;;5045636;23;20177;-92
2024/02/06 02:10:48;;;;;;;1.98;1.08;;;9.70;99.90;;;;;;5094066;23;20160;-90
2024/02/06 02:12:49;;;;;;;3.90;1.05;;;9.80;99.90;;;;;;5069999;23;20280;-91
2024/02/06 02:14:50;;;;;;;4.43;1.30;;;9.90;99.90;;;;;;5093897;23;20157;-94
2024/02/06 02:16:52;;;;;;;3.67;1.08;;;9.90;99.90;;;;;;5069291;23;20237;-90
2024/02/06 02:18:55;;;;;;;3.03;1.38;;;9.90;99.90;;;;;;5093737;23;20687;-91
2024/02/06 02:20:57;;;;;;;3.20;1.90;;;9.70;99.90;;;;;;5045194;23;20186;-91
2024/02/06 02:22:57;;;;;;;6.32;2.15;;;9.70;99.90;;;;;;5045081;23;20151;-93
2024/02/06 02:24:59;;;;;;;1.90;1.30;;;9.70;99.90;;;;;;5069133;23;20189;-91
2024/02/06 02:27:00;;;;;;;5.45;1.58;;;9.70;99.90;;;;;;5045225;23;20178;-92
2024/02/06 02:29:01;;;;;;;6.53;1.17;;;9.70;99.90;;;;;;5069554;23;20166;-91
2024/02/06 02:31:04;;;;;;;3.72;0.80;;;9.80;99.90;;;;;;5069566;23;20578;-91
2024/02/06 02:33:06;;;;;;;1.70;0.77;;;9.80;99.90;;;;;;5093637;23;20204;-91
2024/02/06 02:35:07;;;;;;;3.85;1.52;;;9.70;99.90;;;;;;5094061;23;20148;-92
2024/02/06 02:37:09;;;;;;;6.50;1.45;;;9.80;99.90;;;;;;5044908;23;20174;-92
2024/02/06 02:39:10;;;;;;;4.07;1.55;;;9.80;99.90;;;;;;5044890;23;20162;-90
2024/02/06 02:41:11;;;;;;;2.63;1.35;;;9.80;99.90;;;;;;5069616;23;20161;-91
2024/02/06 02:43:12;;;;;;;12.00;1.92;;;9.70;99.90;;;;;;5069343;23;20192;-90
2024/02/06 02:45:13;;;;;;;3.42;0.88;;;9.70;99.90;;;;;;5069078;23;20508;-90
2024/02/06 02:47:14;;;;;;;2.13;1.58;;;9.70;99.90;;;;;;5069480;23;20173;-91
2024/02/06 02:49:15;;;;;;;3.05;1.20;;;9.60;99.90;;;;;;5093520;23;20164;-91
2024/02/06 02:51:16;;;;;;;5.60;1.17;;;9.60;99.90;;;;;;5069389;23;20613;-91
2024/02/06 02:53:17;;;;;;;6.63;1.50;;;9.70;99.90;;;;;;5069401;23;20467;-93
2024/02/06 02:55:18;;;;;;;10.43;1.33;;;9.70;99.90;;;;;;5069809;23;20153;-92
2024/02/06 02:57:19;;;;;;;11.30;1.38;;;9.70;99.90;;;;;;5093112;23;20177;-91
2024/02/06 02:59:20;;;;;;;1.48;1.00;;;9.70;99.90;;;;;;5069427;23;20155;-92
2024/02/06 03:01:21;;;;;;;2.97;1.25;;;9.80;99.90;;;;;;5093620;23;20164;-91
2024/02/06 03:03:22;;;;;;;1.67;0.95;;;9.80;99.90;;;;;;5069417;23;20189;-95
2024/02/06 03:05:23;;;;;;;4.38;1.15;;;9.80;99.90;;;;;;5069478;23;20194;-92
2024/02/06 03:07:24;;;;;;;3.60;1.48;;;9.70;99.90;;;;;;5068975;23;20170;-93
2024/02/06 03:09:26;;;;;;;3.45;1.88;;;9.70;99.90;;;;;;5069207;23;20213;-91
2024/02/06 03:11:27;;;;;;;1.88;1.02;;;9.60;99.90;;;;;;5069001;23;20150;-92
2024/02/06 03:13:28;;;;;;;4.88;1.17;;;9.60;99.90;;;;;;5093502;23;20157;-91
2024/02/06 03:15:28;;;;;;;3.08;1.33;;;9.60;99.90;;;;;;5069513;23;20156;-92
2024/02/06 03:17:30;;;;;;;2.22;0.73;;;9.60;99.90;;;;;;5069034;23;20182;-92
2024/02/06 03:19:31;;;;;;;1.70;1.00;;;9.60;99.90;;;;;;5093574;23;20157;-92
2024/02/06 03:21:32;;;;;;;16.27;1.65;;;9.70;99.90;;;;;;5093683;23;20180;-92
2024/02/06 03:23:32;;;;;;;2.78;1.05;;;9.80;99.90;;;;;;5069342;23;20181;-92
2024/02/06 03:25:34;;;;;;;6.53;1.30;;;9.70;99.90;;;;;;5093360;23;20199;-92
2024/02/06 03:27:38;;;;;;;2.85;1.35;;;9.70;99.90;;;;;;5068977;23;20165;-91
2024/02/06 03:29:42;;;;;;;5.85;0.98;;;9.70;99.90;;;;;;5068894;23;20212;-92
2024/02/06 03:31:44;;;;;;;1.67;1.00;;;9.70;99.90;;;;;;5068952;23;20158;-92
2024/02/06 03:33:45;;;;;;;5.22;1.25;;;9.80;99.90;;;;;;5068890;23;20489;-92
2024/02/06 03:35:46;;;;;;;4.13;1.80;;;9.80;99.90;;;;;;5093315;23;20156;-91
2024/02/06 03:37:47;;;;;;;5.35;0.90;;;9.80;99.90;;;;;;5068658;23;20193;-93
2024/02/06 03:39:48;;;;;;;2.80;1.15;;;9.70;99.90;;;;;;5068987;23;20548;-92
2024/02/06 03:41:49;;;;;;;3.67;1.40;;;9.70;99.90;;;;;;5068616;23;20180;-94
2024/02/06 03:43:50;;;;;;;5.07;1.60;;;9.80;99.90;;;;;;5093272;23;20157;-91
2024/02/06 03:45:51;;;;;;;5.85;1.00;;;9.80;99.90;;;;;;5068533;23;20517;-92
2024/02/06 03:47:52;;;;;;;5.88;1.15;;;9.80;99.90;;;;;;5068521;23;20193;-92
2024/02/06 03:49:53;;;;;;;1.48;0.80;;;9.90;99.90;;;;;;5068753;23;20153;-91
2024/02/06 03:51:54;;;;;;;7.57;1.60;;;9.90;99.90;;;;;;5068985;23;20201;-92
2024/02/06 03:53:55;;;;;;;2.70;1.00;;;10.00;99.90;;;;;;5068680;23;20222;-91
2024/02/06 03:55:55;;;;;;;4.50;1.20;;;10.20;99.90;;;;;;5068856;23;20153;-91
2024/02/06 03:57:56;;;;;;;3.88;1.30;;;10.10;99.90;;;;;;5068644;23;20192;-92
2024/02/06 03:59:57;;;;;;;2.42;1.13;;;10.00;99.90;;;;;;5068785;23;20153;-93
2024/02/06 04:01:58;;;;;;;4.18;1.90;;;10.00;99.90;;;;;;5093228;23;20163;-90
2024/02/06 04:04:00;;;;;;;4.43;1.38;;;10.10;99.90;;;;;;5068957;23;20251;-90
2024/02/06 04:06:00;;;;;;;3.60;1.95;;;10.10;99.90;;;;;;5068739;23;20203;-93
2024/02/06 04:08:03;;;;;;;5.72;1.60;;;10.00;99.90;;;;;;5069065;23;20174;-91
2024/02/06 04:10:05;;;;;;;4.15;1.40;;;10.10;99.90;;;;;;5068703;23;20161;-93
2024/02/06 04:12:06;;;;;;;4.45;1.42;;;10.00;99.90;;;;;;5068607;23;20158;-92
2024/02/06 04:14:07;;;;;;;3.30;1.23;;;9.90;99.90;;;;;;5068665;23;20161;-92
2024/02/06 04:16:08;;;;;;;6.88;1.92;;;10.00;99.90;;;;;;5068919;23;20197;-93
2024/02/06 04:18:09;;;;;;;2.60;1.08;;;10.00;99.90;;;;;;5068828;23;20177;-92
2024/02/06 04:20:10;;;;;;;2.15;0.98;;;9.90;99.90;;;;;;5093505;23;20155;-92
2024/02/06 04:22:11;;;;;;;3.00;1.33;;;10.00;99.90;;;;;;5069099;23;20169;-92
2024/02/06 04:24:12;;;;;;;2.15;1.05;;;9.90;99.90;;;;;;5069048;23;20165;-91
2024/02/06 04:26:13;;;;;;;3.00;1.52;;;9.90;99.90;;;;;;5068701;23;20686;-91
2024/02/06 04:28:14;;;;;;;2.17;1.05;;;9.90;99.90;;;;;;5068854;23;20189;-91
2024/02/06 04:30:16;;;;;;;5.18;1.48;;;9.90;99.90;;;;;;5068812;23;20497;-93
2024/02/06 04:32:17;;;;;;;2.30;1.58;;;10.00;99.90;;;;;;5068829;23;20228;-91
2024/02/06 04:34:18;;;;;;;7.88;1.88;;;10.00;99.90;;;;;;5068920;23;20158;-91
2024/02/06 04:36:20;;;;;;;4.55;1.25;;;10.00;99.90;;;;;;5068703;23;20154;-91
2024/02/06 04:38:21;;;;;;;5.18;1.60;;;9.90;99.90;;;;;;5069117;23;20557;-91
2024/02/06 04:40:22;;;;;;;5.13;1.90;;;9.90;99.90;;;;;;5093238;23;20156;-92
2024/02/06 04:42:23;;;;;;;3.05;1.00;;;9.80;99.90;;;;;;5068849;23;20529;-91
2024/02/06 04:44:24;;;;;;;3.25;1.38;;;9.80;99.90;;;;;;5069920;23;20154;-95
2024/02/06 04:46:25;;;;;;;2.65;1.08;;;10.00;99.90;;;;;;5070304;23;20199;-92
2024/02/06 04:48:26;;;;;;;2.38;1.45;;;10.00;99.90;;;;;;5070241;23;20153;-93
2024/02/06 04:50:27;;;;;;;4.10;1.88;;;10.00;99.90;;;;;;5094455;23;20152;-93
2024/02/06 04:52:28;;;;;;;4.97;1.50;;;10.00;99.90;;;;;;5070688;23;20153;-92
2024/02/06 04:54:29;;;;;;;5.00;1.65;;;10.10;99.90;;;;;;5070141;23;20188;-92
2024/02/06 04:56:30;;;;;;;2.47;0.65;;;10.20;99.90;;;;;;5094534;23;20145;-91
2024/02/06 04:58:31;;;;;;;5.05;1.83;;;10.00;99.90;;;;;;5094549;23;20161;-92
2024/02/06 05:00:32;;;;;;;1.50;0.63;;;10.00;99.90;;;;;;5094520;23;20329;-91
2024/02/06 05:02:33;;;;;;;4.30;1.50;;;10.00;99.90;;;;;;5070227;23;20153;-92
2024/02/06 05:04:35;;;;;;;3.13;0.80;;;10.00;99.90;;;;;;5070082;23;20177;-92
2024/02/06 05:06:36;;;;;;;2.10;0.93;;;10.00;99.90;;;;;;5070025;23;20165;-92
2024/02/06 05:08:37;;;;;;;4.72;1.23;;;10.00;99.90;;;;;;5094315;23;20232;-94
2024/02/06 05:10:39;;;;;;;2.65;1.13;;;10.10;99.90;;;;;;5069806;23;20157;-93
2024/02/06 05:12:40;;;;;;;4.72;1.85;;;10.10;99.90;;;;;;5070036;23;20154;-94
2024/02/06 05:15:07;;;;;;;4.22;1.33;;;10.20;99.90;;;;;;5072610;23;20162;-94
2024/02/06 05:17:13;;;;;;;4.70;1.38;;;10.20;99.90;;;;;;5046084;23;20186;-94
2024/02/06 05:19:19;;;;;;;7.05;1.80;;;10.20;99.90;;;;;;5070357;23;20219;-94
2024/02/06 05:21:22;;;;;;;6.85;1.40;;;10.20;99.90;;;;;;5070324;23;20158;-94
2024/02/06 05:23:35;;;;;;;7.05;1.67;;;10.10;99.90;;;;;;5095638;23;20160;-95
2024/02/06 05:25:37;;;;;;;8.60;1.63;;;10.10;99.90;;;;;;5047162;23;20565;-95
2024/02/06 05:27:40;;;;;;;13.85;0.90;;;10.10;99.90;;;;;;5046805;23;20206;-94
2024/02/06 05:29:42;;;;;;;1.30;0.80;;;10.10;99.90;;;;;;5072074;23;20534;-93
2024/02/06 05:31:53;;;;;;;2.13;1.05;;;10.00;99.90;;;;;;5071216;23;20158;-93
2024/02/06 05:34:04;;;;;;;6.00;1.75;;;10.00;99.90;;;;;;5070364;23;20157;-93
2024/02/06 05:36:35;;;;;;;1.00;0.70;;;10.00;99.90;;;;;;5075360;23;20163;-93
2024/02/06 05:38:44;;;;;;;6.07;1.15;;;9.90;99.90;;;;;;5073212;23;20161;-94
2024/02/06 05:41:17;;;;;;;7.28;1.50;;;9.90;99.90;;;;;;5047690;23;20258;-95
2024/02/06 05:43:42;;;;;;;2.05;0.98;;;10.10;99.90;;;;;;5071352;23;20597;-92
2024/02/06 05:45:43;;;;;;;3.55;1.00;;;10.20;99.90;;;;;;5048625;23;20290;-93
2024/02/06 05:47:45;;;;;;;5.18;1.40;;;10.20;99.90;;;;;;5046664;23;20222;-94
2024/02/06 05:49:46;;;;;;;11.10;1.33;;;10.20;99.90;;;;;;5071169;23;20153;-94
2024/02/06 05:51:54;;;;;;;7.22;1.02;;;10.20;99.90;;;;;;5094630;23;20157;-93
2024/02/06 05:53:58;;;;;;;4.40;1.25;;;10.10;99.90;;;;;;5046445;23;20164;-94
2024/02/06 05:56:10;;;;;;;1.92;1.15;;;10.00;99.90;;;;;;5096622;23;20220;-94
2024/02/06 05:58:29;;;;;;;3.90;1.50;;;10.10;99.90;;;;;;5072902;23;20169;-95
2024/02/06 06:00:35;;;;;;;5.30;1.20;;;10.10;99.90;;;;;;5046232;23;20221;-95
2024/02/06 06:02:41;;;;;;;3.05;1.20;;;10.00;99.90;;;;;;5047088;23;20178;-94
2024/02/06 06:04:48;;;;;;;5.45;1.52;;;10.00;99.90;;;;;;5071642;23;20153;-95
2024/02/06 06:06:51;;;;;;;3.70;1.52;;;10.00;99.90;;;;;;5047655;23;20179;-93
2024/02/06 06:08:52;;;;;;;3.10;1.13;;;10.00;99.90;;;;;;5045708;23;20158;-92
2024/02/06 06:10:57;;;;;;;13.18;1.98;;;10.00;99.90;;;;;;5069896;23;20172;-94
2024/02/06 06:12:58;;;;;;;2.90;1.25;;;10.00;99.90;;;;;;5069854;23;20157;-94
2024/02/06 06:14:59;;;;;;;7.28;1.35;;;10.00;99.90;;;;;;5070138;23;20173;-92
2024/02/06 06:17:00;;;;;;;2.67;1.42;;;10.00;99.90;;;;;;5070082;23;20177;-94
2024/02/06 06:19:06;;;;;;;6.75;1.55;;;10.00;99.90;;;;;;5070022;23;20165;-92
2024/02/06 06:21:12;;;;;;;11.52;1.30;;;10.00;99.90;;;;;;5045734;23;20158;-93
2024/02/06 06:23:21;;;;;;;7.90;1.65;;;10.00;99.90;;;;;;5045968;23;20254;-94
2024/02/06 06:25:38;;;;;;;2.00;0.93;;;10.00;99.90;;;;;;5095153;23;20192;-94
2024/02/06 06:27:42;;;;;;;4.65;1.55;;;10.00;99.90;;;;;;5045564;23;20180;-95
2024/02/06 06:29:48;;;;;;;3.42;1.60;;;10.10;99.90;;;;;;5070014;23;20173;-93
2024/02/06 06:31:56;;;;;;;3.58;1.65;;;10.10;99.90;;;;;;5069628;23;20160;-93
2024/02/06 06:33:57;;;;;;;2.75;1.27;;;10.10;99.90;;;;;;5045326;23;20158;-94
2024/02/06 06:35:58;;;;;;;2.63;1.50;;;10.20;99.90;;;;;;5069786;23;20185;-94
2024/02/06 06:37:59;;;;;;;3.17;1.27;;;10.00;99.90;;;;;;5095718;23;20177;-94
2024/02/06 06:40:01;;;;;;;3.15;1.30;;;9.90;99.90;;;;;;5069921;23;20201;-94
2024/02/06 06:42:07;;;;;;;7.88;1.85;;;9.90;99.90;;;;;;5073340;23;20154;-95
2024/02/06 06:44:11;;;;;;;1.23;0.80;;;10.00;99.90;;;;;;5046221;23;20297;-96
2024/02/06 06:46:12;;;;;;;6.38;2.53;;;9.90;99.90;;;;;;5095556;23;20259;-93
2024/02/06 06:48:16;;;;;;;3.88;1.42;;;9.90;99.90;;;;;;5070789;23;20765;-94
2024/02/06 06:50:17;;;;;;;6.22;1.55;;;10.00;99.90;;;;;;5097613;23;20177;-94
2024/02/06 06:52:18;;;;;;;4.95;1.52;;;10.10;99.90;;;;;;5070620;23;20600;-96
2024/02/06 06:54:19;;;;;;;5.15;1.38;;;10.10;99.90;;;;;;5094533;23;20161;-94
2024/02/06 06:56:20;;;;;;;12.02;2.97;;;10.10;99.90;;;;;;5070385;23;20160;-96
2024/02/06 06:58:21;;;;;;;3.28;1.35;;;10.10;99.90;;;;;;5071691;23;20237;-96
2024/02/06 07:00:28;;;;;;;3.25;1.63;;;10.20;99.90;;;;;;5070744;23;20173;-94
2024/02/06 07:02:30;;;;;;;6.00;1.92;;;10.20;99.90;;;;;;5069868;23;20245;-94
2024/02/06 07:04:40;;;;;;;6.90;1.45;;;10.10;99.90;;;;;;5072931;23;20150;-95
2024/02/06 07:06:42;;;;;;;2.15;1.05;;;10.10;99.90;;;;;;5071488;23;20520;-95
2024/02/06 07:08:44;;;;;;;1.98;1.15;;;10.20;99.90;;;;;;5071089;23;20663;-94
2024/02/06 07:10:48;;;;;;;3.63;1.20;;;10.30;99.90;;;;;;5073050;23;20197;-96
2024/02/06 07:12:51;;;;;;;2.90;1.65;;;10.20;99.90;;;;;;5097341;23;20144;-94
2024/02/06 07:14:52;;;;;;;5.72;1.00;;;10.10;99.90;;;;;;5070162;23;20201;-95
2024/02/06 07:16:53;;;;;;;6.03;1.40;;;10.10;99.90;;;;;;5094797;23;20173;-95
2024/02/06 07:18:57;;;;;;;7.03;1.35;;;10.10;99.90;;;;;;5096583;23;20192;-96
2024/02/06 07:20:58;;;;;;;4.47;1.40;;;10.10;99.90;;;;;;5095655;23;20164;-95
2024/02/06 07:22:59;;;;;;;3.92;1.83;;;10.10;99.90;;;;;;5070307;23;20229;-95
2024/02/06 07:25:02;;;;;;;7.30;1.17;;;10.20;99.90;;;;;;5070631;23;20668;-95
2024/02/06 07:27:06;;;;;;;3.05;0.85;;;10.20;99.90;;;;;;5069698;23;20181;-96
2024/02/06 07:29:06;;;;;;;8.98;1.42;;;10.20;99.90;;;;;;5070397;23;20154;-95
2024/02/06 07:31:13;;;;;;;3.50;1.63;;;10.10;99.90;;;;;;5070154;23;20154;-95
2024/02/06 07:33:14;;;;;;;6.25;1.40;;;10.10;99.90;;;;;;5049809;23;20161;-96
2024/02/06 07:35:26;;;;;;;4.97;1.63;;;10.20;99.90;;;;;;5048307;23;20158;-94
2024/02/06 07:37:27;;;;;;;6.10;0.90;;;10.20;99.90;;;;;;5047228;23;20174;-95
2024/02/06 07:39:28;;;;;;;3.08;1.45;;;10.10;99.90;;;;;;5070641;23;20217;-95
2024/02/06 07:41:29;;;;;;;5.75;1.48;;;10.20;99.90;;;;;;5048054;23;20814;-94
2024/02/06 07:43:31;;;;;;;3.35;1.35;;;10.20;99.90;;;;;;5071147;23;20149;-95
2024/02/06 07:45:32;;;;;;;1.42;0.93;;;10.30;99.90;;;;;;5094523;23;20267;-94
2024/02/06 07:47:36;;;;;;;6.95;1.60;;;10.20;99.90;;;;;;5069025;23;20216;-93
2024/02/06 07:49:42;;;;;;;2.95;1.30;;;10.20;99.90;;;;;;5070703;23;20524;-96
2024/02/06 07:51:47;;;;;;;2.15;0.95;;;10.20;99.90;;;;;;5049213;23;20162;-96
2024/02/06 07:53:51;;;;;;;4.88;1.63;;;10.30;99.90;;;;;;5046022;23;20162;-95
2024/02/06 07:55:59;;;;;;;3.63;1.40;;;10.30;99.90;;;;;;5071896;23;20215;-95
2024/02/06 07:58:03;;;;;;;11.18;2.00;;;10.30;99.90;;;;;;5069736;23;20173;-94
2024/02/06 08:00:05;;;;;;;5.68;1.50;;;10.30;99.90;;;;;;5069649;23;20157;-96
2024/02/06 08:02:07;;;;;;;12.10;2.13;;;10.30;99.90;;;;;;5098331;23;20172;-96
2024/02/06 08:04:11;;;;;;;9.07;1.92;;;10.30;99.90;;;;;;5045879;23;20154;-95
2024/02/06 08:06:25;;;;;;;4.55;2.30;;;10.40;99.90;;;;;;5048529;23;20185;-96
2024/02/06 08:08:29;;;;;;;8.23;1.38;;;10.50;99.90;;;;;;5094837;23;20164;-96
2024/02/06 08:10:39;;;;;;;3.30;1.70;;;10.40;99.90;;;;;;5046070;23;20154;-95
2024/02/06 08:12:56;;;;;;;3.15;1.38;;;10.40;99.90;;;;;;5095298;23;20163;-95
2024/02/06 08:15:33;;;;;;;2.03;0.80;;;10.40;99.90;;;;;;5074479;23;20211;-95
2024/02/06 08:17:42;;;;;;;8.38;1.80;;;10.40;99.90;;;;;;5046651;23;20221;-96
2024/02/06 08:19:43;;;;;;;8.38;1.83;;;10.40;99.90;;;;;;5070929;23;20145;-95
2024/02/06 08:21:50;;;;;;;8.40;1.33;;;10.40;99.90;;;;;;5071221;23;20189;-95
2024/02/06 08:23:51;;;;;;;11.15;3.22;;;10.50;99.90;;;;;;5071080;23;20158;-94
2024/02/06 08:25:57;;;;;;;1.52;0.95;;;10.50;99.90;;;;;;5071452;23;20706;-95
2024/02/06 08:27:58;;;;;;;8.02;1.30;;;10.40;99.90;;;;;;5071119;23;20173;-95
2024/02/06 08:29:59;;;;;;;5.90;1.45;;;10.30;99.90;;;;;;5094945;23;20211;-95
2024/02/06 08:32:03;;;;;;;11.55;1.75;;;10.30;99.90;;;;;;5071466;23;20184;-95
2024/02/06 08:34:07;;;;;;;11.95;4.75;;;10.40;99.90;;;;;;5071897;23;20623;-96
2024/02/06 08:36:14;;;;;;;6.00;2.50;;;10.50;99.90;;;;;;5072608;23;20153;-95
2024/02/06 08:38:18;;;;;;;6.95;1.52;;;10.50;99.90;;;;;;5047276;23;20163;-94
2024/02/06 08:40:19;;;;;;;4.32;1.95;;;10.50;99.90;;;;;;5070822;23;20160;-96
2024/02/06 08:42:20;;;;;;;3.22;1.00;;;10.50;99.90;;;;;;5072654;23;20162;-95
2024/02/06 08:44:22;;;;;;;5.00;1.60;;;10.50;99.90;;;;;;5071376;23;20153;-96
2024/02/06 08:46:23;;;;;;;7.63;2.30;;;10.40;99.90;;;;;;5096061;23;20227;-94
2024/02/06 08:48:24;;;;;;;2.83;1.30;;;10.50;99.90;;;;;;5097598;23;20248;-94
2024/02/06 08:50:33;;;;;;;12.38;2.72;;;10.40;99.90;;;;;;5096266;23;20153;-96
2024/02/06 08:52:38;;;;;;;12.82;1.52;;;10.40;99.90;;;;;;5072247;23;20185;-95
2024/02/06 08:54:42;;;;;;;1.95;0.95;;;10.40;99.90;;;;;;5072684;23;20161;-95
2024/02/06 08:56:43;;;;;;;11.60;1.85;;;10.50;99.90;;;;;;5070722;23;20167;-95
2024/02/06 08:58:45;;;;;;;1.45;1.10;;;10.50;99.90;;;;;;5071070;23;20274;-95
2024/02/06 09:00:49;;;;;;;8.52;1.42;;;10.60;99.90;;;;;;5070776;23;20149;-95
2024/02/06 09:02:50;;;;;;;5.68;1.63;;;10.50;99.90;;;;;;5070420;23;20466;-96
2024/02/06 09:04:54;;;;;;;1.98;1.05;;;10.50;99.90;;;;;;5072302;23;20185;-95
2024/02/06 09:06:59;;;;;;;15.23;2.58;;;10.50;99.90;;;;;;5071818;23;20177;-95
2024/02/06 09:09:03;;;;;;;5.30;1.13;;;10.60;99.90;;;;;;5071604;23;20149;-95
2024/02/06 09:11:07;;;;;;;3.35;1.42;;;10.70;99.90;;;;;;5072566;23;20179;-94
2024/02/06 09:13:08;;;;;;;4.97;1.30;;;10.60;99.90;;;;;;5071138;23;20634;-95
2024/02/06 09:15:10;;;;;;;3.63;1.40;;;10.60;99.90;;;;;;5094316;23;20217;-94
2024/02/06 09:17:22;;;;;;;4.07;2.13;;;10.50;99.90;;;;;;5073266;23;20627;-94
2024/02/06 09:19:27;;;;;;;2.30;1.35;;;10.50;99.90;;;;;;5095034;23;20235;-94
2024/02/06 09:21:28;;;;;;;4.47;1.67;;;10.60;99.90;;;;;;5048623;23;20150;-93
2024/02/06 09:23:30;;;;;;;3.88;1.40;;;10.60;99.90;;;;;;5070242;23;20462;-95
2024/02/06 09:25:31;;;;;;;4.22;1.80;;;10.70;99.90;;;;;;5045771;23;20290;-95
2024/02/06 09:27:32;;;;;;;9.23;1.73;;;10.70;99.90;;;;;;5046285;23;20221;-94
2024/02/06 09:29:35;;;;;;;5.65;1.48;;;10.70;99.90;;;;;;5045749;23;20164;-95
2024/02/06 09:31:38;;;;;;;12.35;1.48;;;10.60;99.90;;;;;;5070104;23;20156;-96
2024/02/06 09:33:51;;;;;;;2.72;0.90;;;10.60;99.90;;;;;;5094748;23;20236;-93
2024/02/06 09:35:52;;;;;;;32.92;1.67;;;10.60;99.90;;;;;;5046057;23;20236;-94
2024/02/06 09:37:53;;;;;;;2.13;1.08;;;10.60;99.90;;;;;;5071306;23;20260;-95
2024/02/06 09:39:54;;;;;;;3.05;1.75;;;10.60;99.90;;;;;;5094407;23;20184;-95
2024/02/06 09:42:01;;;;;;;5.45;2.10;;;10.60;99.90;;;;;;5070818;23;20161;-94
2024/02/06 09:44:02;;;;;;;4.18;2.00;;;10.60;99.90;;;;;;5045754;23;20158;-96
2024/02/06 09:46:04;;;;;;;2.72;0.77;;;10.70;99.90;;;;;;5069926;23;20253;-96
2024/02/06 09:48:08;;;;;;;6.00;1.42;;;10.60;99.90;;;;;;5070290;23;20185;-93
2024/02/06 09:50:10;;;;;;;6.63;1.05;;;10.50;99.90;;;;;;5072091;23;20181;-94
2024/02/06 09:52:20;;;;;;;4.95;2.08;;;10.60;99.90;;;;;;5072045;23;20161;-96
2024/02/06 09:54:28;;;;;;;2.13;1.20;;;10.70;99.90;;;;;;5070531;23;20153;-94
2024/02/06 09:56:32;;;;;;;6.05;2.35;;;10.70;99.90;;;;;;5094340;23;20191;-95
2024/02/06 09:58:33;;;;;;;6.75;1.90;;;10.70;99.90;;;;;;5069933;23;20240;-94
2024/02/06 10:00:38;;;;;;;9.90;1.77;;;10.70;99.90;;;;;;5069685;23;20477;-93
2024/02/06 10:02:43;;;;;;;3.20;1.08;;;10.60;99.90;;;;;;5069787;23;20565;-95
2024/02/06 10:04:45;;;;;;;9.15;1.02;;;10.60;99.90;;;;;;5070233;23;20154;-95
2024/02/06 10:08:52;;;;;;;5.50;1.67;;;10.60;99.90;;;;;;5024468;23;20155;-93
2024/02/06 10:11:06;;;;;;;6.43;2.03;;;10.70;99.90;;;;;;5046259;23;20163;-94
2024/02/06 10:13:13;;;;;;;0.98;0.80;;;10.90;99.90;;;;;;5070204;23;20284;-95
2024/02/06 10:15:19;;;;;;;5.53;1.20;;;10.90;99.90;;;;;;5070145;23;20531;-93
2024/02/06 10:17:20;;;;;;;10.60;1.73;;;10.90;99.90;;;;;;5045916;23;20174;-94
2024/02/06 10:19:35;;;;;;;7.43;1.75;;;10.90;99.90;;;;;;5046736;23;20210;-94
2024/02/06 10:21:36;;;;;;;5.90;1.60;;;11.00;99.90;;;;;;5069927;23;20224;-94
2024/02/06 10:23:38;;;;;;;3.28;1.30;;;11.20;99.90;;;;;;5094242;23;20160;-94
2024/02/06 10:25:43;;;;;;;11.40;1.25;;;11.30;99.90;;;;;;5045942;23;20186;-96
2024/02/06 10:27:59;;;;;;;4.00;1.65;;;11.30;99.90;;;;;;5094873;23;20173;-94
2024/02/06 10:30:17;;;;;;;9.85;2.42;;;11.20;99.90;;;;;;5070829;23;20157;-95
2024/02/06 10:32:21;;;;;;;5.20;1.63;;;11.10;99.90;;;;;;5069335;23;20185;-96
2024/02/06 10:34:26;;;;;;;3.08;1.10;;;11.10;99.90;;;;;;5069992;23;20150;-94
2024/02/06 10:36:35;;;;;;;3.45;1.35;;;11.10;99.90;;;;;;5072583;23;20165;-91
2024/02/06 10:38:39;;;;;;;5.78;1.13;;;11.20;99.90;;;;;;5070100;23;20216;-95
2024/02/06 10:41:08;;;;;;;4.32;1.45;;;11.10;99.90;;;;;;5070179;23;20169;-94
2024/02/06 10:43:15;;;;;;;9.95;2.42;;;11.20;99.90;;;;;;5070849;23;20176;-95
2024/02/06 10:45:20;;;;;;;6.78;1.27;;;11.20;99.90;;;;;;5069619;23;20284;-94
2024/02/06 10:47:25;;;;;;;2.72;1.08;;;11.20;99.90;;;;;;5069452;23;20221;-96